Terminal Aerodrome Forecast
Issued by NWS

Home | Current Version | Previous Version | Text Only | Print | Product List | Glossary On
Versions: 1 2 3 4 5 6 7 8 9 10 11 12 13 14
000
FTAK31 PAFA 161155
TAFATA
TAF
PATA 161155Z 1612/1712 VRB05KT P6SM VCSH OVC070
     FM161600 11005KT P6SM VCSH BKN025 OVC040
     FM161900 14005KT P6SM -SHRA BKN025=

USA.gov is the U.S. government's official web portal to all federal, state and local government web resources and services.